Terminal Aerodrome Forecast
Issued by NWS Cleveland, OH

Home | Current Version | Previous Version | Text Only | Print | Product List | Glossary On
Versions: 1 2 3 4 5 6 7 8 9 10 11 12 13 14 15 16 17 18 19 20 21 22 23 24 25
000
FTUS41 KCLE 291730
TAFCLE
TAF
KCLE 291730Z 2918/3024 VRB05KT P6SM SCT050 BKN120
     FM300100 14004KT P6SM VCSH BKN045 OVC090
     FM300900 18005KT 6SM BR VCSH BKN040 OVC080
     FM301800 25005KT P6SM VCTS BKN045CB=

USA.gov is the U.S. government's official web portal to all federal, state and local government web resources and services.